Coronel Joao Sa, Brazil
Current Conditions -  °F | °C
As of 3:00 PM on Sunday 25 Jan 2015 (Local Time) from SBUF Reporting Station
Scattered Clouds Scattered Clouds  
Wind Chill: 97°   Ceiling: Unl
Heat Index: 97°   Visibility: 6mi
Dew Point: 59°   Wind: 13mph
Humidity: 28%   Direction: 120°ESE
Pressure: 29.85"   Gusts: NA
Location:  10.28°S, 37.93°W
Report Text: SBUF 251800Z 12011KT 9999 SCT022 36/15 Q1011
Loading
Personal Weather Stations






























Interactive Weather Map New forecast layout! Learn more

10-Day Weather Forecast

Advertisements
Track Severe Weather on mobile